Airfield :







YOU CAN JOIN US ON...

 
LOGIN :

Register | Disclaimer

   EN    FR    IT 

 









Legend :    VFR   Marginal VFR   IFR   Intensive IFR   Very Intensive IFR
Visi :
Ceiling :
>= 8 km
>= 3000ft
5 to 8 km
1000 to 3000 ft
1500m to 5 km
500 to 1000 ft
800 to 1500m
200 to 500 ft
< 800m
< 200 ft
Symbols :   Thunderstorms  Fog  Heavy snow  Heavy precipitations  Wind > 20 kt







- Airport Elevation : 133 ft
- IATA code : BED


KBED - Laurence G Hanscom Field

CURRENT METAR :
  • 192156Z 21016G23KT 10SM FEW200 23/15 A2992 RMK AO2 SLP144 T02330150

EXPIRED METARs :
  • 192056Z 20015G19KT 10SM FEW200 24/14 A2993 RMK AO2 SLP147 T02440144 58027
  • 191956Z 21014G20KT 10SM CLR 24/13 A2996 RMK AO2 SLP157 T02440133

TAF KBED
Valid from the 19 at 18:00 until the 20 at 18:00 UTC


191735Z 1918/2018 21012G20KT P6SM BKN045
FM192000 21012G22KT 6SM BR SCT090
FM200300 21010KT 6SM BR OVC008
FM200500 20009KT 4SM BR VCSH OVC003
FM201400 23009KT P6SM OVC008
FM201700 22011G21KT P6SM BKN015
KZBW FIR / North America



MET'MAP, your aeronautical weather chart ! - Copyright ORBIFLY December 2007 - Disclaimer

ORBIFLY MET'MAP TEAM :

Programming & Development : Alexandra Zaïnal
Concept & Development : Baudouin d'Aumeries
Co-Development & Prog : Marc-Olivier Méhu
Technical & hardware support : Manuel Goepfert

Contact : metmap@orbifly.com




SOURCES & CREDITS :

   NOAA